createdAt,value
2018-11-14T00:00:09.598Z,0
2018-11-14T00:00:50.259Z,0
2018-11-14T00:01:30.833Z,0
2018-11-14T00:02:11.435Z,0
2018-11-14T00:02:51.977Z,0
2018-11-14T00:03:32.530Z,0
2018-11-14T00:04:13.095Z,0
2018-11-14T00:04:53.657Z,0
2018-11-14T00:05:34.270Z,0
2018-11-14T00:06:14.839Z,0
2018-11-14T00:06:55.392Z,0
2018-11-14T00:07:35.972Z,0
2018-11-14T00:08:16.528Z,0
2018-11-14T00:08:57.109Z,0
2018-11-14T00:09:37.769Z,0
2018-11-14T00:10:18.929Z,0
2018-11-14T00:10:58.797Z,0
2018-11-14T00:11:39.377Z,0
2018-11-14T00:12:19.917Z,0
2018-11-14T00:13:00.487Z,0
2018-11-14T00:13:41.035Z,0
2018-11-14T00:14:21.612Z,0
2018-11-14T00:15:02.178Z,0
2018-11-14T00:15:42.733Z,0
2018-11-14T00:16:23.292Z,0
2018-11-14T00:17:03.877Z,0
2018-11-14T00:17:44.410Z,0
2018-11-14T00:18:24.953Z,0
2018-11-14T00:19:05.527Z,0
2018-11-14T00:19:46.086Z,0
2018-11-14T00:20:26.648Z,0
2018-11-14T00:21:07.205Z,0
2018-11-14T00:21:47.769Z,0
2018-11-14T00:22:28.329Z,0
2018-11-14T00:23:08.879Z,0
2018-11-14T00:23:49.451Z,0
2018-11-14T00:24:30.155Z,0
2018-11-14T00:25:10.592Z,0
2018-11-14T00:25:51.155Z,0
2018-11-14T00:26:32.077Z,0
2018-11-14T00:27:12.619Z,0
2018-11-14T00:27:53.223Z,0
2018-11-14T00:28:33.971Z,0
2018-11-14T00:29:14.368Z,0
2018-11-14T00:29:54.926Z,0
2018-11-14T00:30:35.476Z,0
2018-11-14T00:31:16.057Z,0
2018-11-14T00:31:56.614Z,0
2018-11-14T00:32:37.174Z,0
2018-11-14T00:33:17.725Z,0
2018-11-14T00:33:58.290Z,0
2018-11-14T00:34:38.928Z,0
2018-11-14T00:35:19.412Z,0
2018-11-14T00:35:59.955Z,0
2018-11-14T00:36:40.509Z,0
2018-11-14T00:37:21.064Z,0
2018-11-14T00:38:01.612Z,0
2018-11-14T00:38:42.173Z,0
2018-11-14T00:39:22.731Z,0
2018-11-14T00:40:03.299Z,0
2018-11-14T00:40:43.867Z,0
2018-11-14T00:41:24.427Z,0
2018-11-14T00:42:04.991Z,0
2018-11-14T00:42:45.523Z,0
2018-11-14T00:43:26.084Z,0
2018-11-14T00:44:06.619Z,0
2018-11-14T00:44:47.172Z,0
2018-11-14T00:45:27.750Z,0
2018-11-14T00:46:08.319Z,0
2018-11-14T00:46:48.872Z,0
2018-11-14T00:47:29.426Z,0
2018-11-14T00:48:09.973Z,0
2018-11-14T00:48:50.522Z,0
2018-11-14T00:49:31.101Z,0
2018-11-14T00:50:11.660Z,0
2018-11-14T00:50:52.220Z,0
2018-11-14T00:51:32.788Z,0
2018-11-14T00:52:13.358Z,0
2018-11-14T00:52:53.921Z,0
2018-11-14T00:53:34.497Z,0
2018-11-14T00:54:15.050Z,0
2018-11-14T00:54:55.638Z,0
2018-11-14T00:55:36.185Z,0
2018-11-14T00:56:16.758Z,0
2018-11-14T00:56:57.322Z,0
2018-11-14T00:57:37.881Z,0
2018-11-14T00:58:18.432Z,0
2018-11-14T00:58:59.029Z,0
2018-11-14T00:59:39.582Z,0
2018-11-14T01:00:20.145Z,0
2018-11-14T01:01:00.709Z,0
2018-11-14T01:01:41.356Z,0
2018-11-14T01:02:22.240Z,0
2018-11-14T01:03:02.921Z,0
2018-11-14T01:03:43.500Z,0
2018-11-14T01:04:24.089Z,0
2018-11-14T01:05:04.631Z,0
2018-11-14T01:05:45.210Z,0
2018-11-14T01:06:25.783Z,0
2018-11-14T01:07:06.340Z,0
2018-11-14T01:07:46.941Z,0
2018-11-14T01:08:27.469Z,0
2018-11-14T01:09:08.076Z,0
2018-11-14T01:09:48.591Z,0
2018-11-14T01:10:29.162Z,0
2018-11-14T01:11:09.709Z,0
2018-11-14T01:11:50.271Z,0
2018-11-14T01:12:31.000Z,0
2018-11-14T01:13:11.606Z,0
2018-11-14T01:13:52.027Z,0
2018-11-14T01:14:32.579Z,0
2018-11-14T01:15:13.182Z,0
2018-11-14T01:15:53.730Z,0
2018-11-14T01:16:34.295Z,0
2018-11-14T01:17:14.951Z,0
2018-11-14T01:17:55.416Z,0
2018-11-14T01:18:35.971Z,0
2018-11-14T01:19:16.542Z,0
2018-11-14T01:19:57.122Z,0
2018-11-14T01:20:37.675Z,0
2018-11-14T01:21:18.226Z,0
2018-11-14T01:21:58.781Z,0
2018-11-14T01:22:39.338Z,0
2018-11-14T01:23:19.903Z,0
2018-11-14T01:24:00.460Z,0
2018-11-14T01:24:41.027Z,0
2018-11-14T01:25:21.585Z,0
2018-11-14T01:26:02.145Z,0
2018-11-14T01:26:42.714Z,0
2018-11-14T01:27:23.723Z,0
2018-11-14T01:28:03.835Z,0
2018-11-14T01:28:44.383Z,0
2018-11-14T01:29:25.023Z,0
2018-11-14T01:30:05.593Z,0
2018-11-14T01:30:46.134Z,0
2018-11-14T01:31:26.697Z,0
2018-11-14T01:32:07.288Z,0
2018-11-14T01:32:47.843Z,0
2018-11-14T01:33:28.383Z,0
2018-11-14T01:34:09.004Z,0
2018-11-14T01:34:49.508Z,0
2018-11-14T01:35:30.150Z,0
2018-11-14T01:36:10.716Z,0
2018-11-14T01:36:51.283Z,0
2018-11-14T01:37:31.858Z,0
2018-11-14T01:38:12.443Z,0
2018-11-14T01:38:52.998Z,0
2018-11-14T01:39:33.544Z,0
2018-11-14T01:40:14.095Z,0
2018-11-14T01:40:54.655Z,0
2018-11-14T01:41:35.205Z,0
2018-11-14T01:42:15.765Z,0
2018-11-14T01:42:56.318Z,0
2018-11-14T01:43:36.889Z,0
2018-11-14T01:44:17.448Z,0
2018-11-14T01:44:58.002Z,0
2018-11-14T01:45:38.554Z,0
2018-11-14T01:46:19.135Z,0
2018-11-14T01:46:59.674Z,0
2018-11-14T01:47:40.273Z,0
2018-11-14T01:48:20.850Z,0
2018-11-14T01:49:01.403Z,0
2018-11-14T01:49:41.958Z,0
2018-11-14T01:50:22.518Z,0
2018-11-14T01:51:03.099Z,0
2018-11-14T01:51:43.639Z,0
2018-11-14T01:52:24.217Z,0
2018-11-14T01:53:04.780Z,0
2018-11-14T01:53:45.356Z,0
2018-11-14T01:54:25.896Z,0
2018-11-14T01:55:06.440Z,0
2018-11-14T01:55:46.998Z,0
2018-11-14T01:56:27.538Z,0
2018-11-14T01:57:08.101Z,0
2018-11-14T01:57:48.665Z,0
2018-11-14T01:58:29.279Z,0
2018-11-14T01:59:09.848Z,0
2018-11-14T01:59:50.413Z,0
2018-11-14T02:00:30.965Z,0
2018-11-14T02:01:11.501Z,0
2018-11-14T02:01:52.082Z,0
2018-11-14T02:02:32.639Z,0
2018-11-14T02:03:13.177Z,0
2018-11-14T02:03:53.759Z,0
2018-11-14T02:04:34.328Z,0
2018-11-14T02:05:14.885Z,0
2018-11-14T02:05:55.470Z,0
2018-11-14T02:06:35.999Z,0
2018-11-14T02:07:16.554Z,0
2018-11-14T02:07:57.129Z,0
2018-11-14T02:08:37.699Z,0
2018-11-14T02:09:18.249Z,0
2018-11-14T02:09:58.814Z,0
2018-11-14T02:10:39.374Z,0
2018-11-14T02:11:19.942Z,0
2018-11-14T02:12:00.506Z,0
2018-11-14T02:12:41.054Z,0
2018-11-14T02:13:21.613Z,0
2018-11-14T02:14:02.171Z,0
2018-11-14T02:14:42.771Z,0
2018-11-14T02:15:23.316Z,0
2018-11-14T02:16:03.859Z,0
2018-11-14T02:16:44.426Z,0
2018-11-14T02:17:24.993Z,0
2018-11-14T02:18:05.570Z,0
2018-11-14T02:18:46.107Z,0
2018-11-14T02:19:26.656Z,0
2018-11-14T02:20:07.202Z,0
2018-11-14T02:20:47.760Z,0
2018-11-14T02:21:28.320Z,0
2018-11-14T02:22:08.883Z,0
2018-11-14T02:22:49.440Z,0
2018-11-14T02:23:29.984Z,0
2018-11-14T02:24:10.534Z,0
2018-11-14T02:24:51.084Z,0
2018-11-14T02:25:31.649Z,0
2018-11-14T02:26:12.209Z,0
2018-11-14T02:26:52.756Z,0
2018-11-14T02:27:33.319Z,0
2018-11-14T02:28:13.885Z,0
2018-11-14T02:28:54.441Z,0
2018-11-14T02:29:35.005Z,0
2018-11-14T02:30:15.568Z,0
2018-11-14T02:30:56.113Z,0
2018-11-14T02:31:36.664Z,0
2018-11-14T02:32:17.225Z,0
2018-11-14T02:32:57.787Z,0
2018-11-14T02:33:38.352Z,0
2018-11-14T02:34:18.909Z,0
2018-11-14T02:34:59.512Z,0
2018-11-14T02:35:40.075Z,0
2018-11-14T02:36:20.667Z,0
2018-11-14T02:37:01.217Z,0
2018-11-14T02:37:41.781Z,0
2018-11-14T02:38:22.367Z,0
2018-11-14T02:39:02.915Z,0
2018-11-14T02:39:43.512Z,0
2018-11-14T02:40:24.081Z,0
2018-11-14T02:41:04.745Z,0
2018-11-14T02:41:45.304Z,0
2018-11-14T02:42:25.903Z,0
2018-11-14T02:43:06.462Z,0
2018-11-14T02:43:47.021Z,0
2018-11-14T02:44:27.558Z,0
2018-11-14T02:45:08.131Z,0
2018-11-14T02:45:48.807Z,0
2018-11-14T02:46:29.289Z,0
2018-11-14T02:47:09.856Z,0
2018-11-14T02:47:50.401Z,0
2018-11-14T02:48:30.955Z,0
2018-11-14T02:49:11.515Z,0
2018-11-14T02:49:52.069Z,0
2018-11-14T02:50:32.627Z,0
2018-11-14T02:51:13.180Z,0
2018-11-14T02:51:53.739Z,0
2018-11-14T02:52:34.295Z,0
2018-11-14T02:53:14.898Z,0
2018-11-14T02:53:55.422Z,0
2018-11-14T02:54:36.020Z,0
2018-11-14T02:55:16.626Z,0
2018-11-14T02:55:57.206Z,0
2018-11-14T02:56:37.767Z,0
2018-11-14T02:57:18.335Z,0
2018-11-14T02:57:58.894Z,0
2018-11-14T02:58:39.502Z,0
2018-11-14T02:59:20.064Z,0
2018-11-14T03:00:00.636Z,0
2018-11-14T03:00:41.189Z,0
2018-11-14T03:01:21.745Z,0
2018-11-14T03:02:02.292Z,0
2018-11-14T03:02:42.862Z,0
2018-11-14T03:03:23.441Z,0
2018-11-14T03:04:04.000Z,0
2018-11-14T03:04:44.576Z,0
2018-11-14T03:05:25.130Z,0
2018-11-14T03:06:05.677Z,0
2018-11-14T03:06:46.286Z,0
2018-11-14T03:07:26.845Z,0
2018-11-14T03:08:07.406Z,0
2018-11-14T03:08:47.965Z,0
2018-11-14T03:09:28.526Z,0
2018-11-14T03:10:09.071Z,0
2018-11-14T03:10:49.655Z,0
2018-11-14T03:11:30.224Z,0
2018-11-14T03:12:10.824Z,0
2018-11-14T03:12:51.365Z,0
2018-11-14T03:13:31.961Z,0
2018-11-14T03:14:12.535Z,0
2018-11-14T03:14:53.091Z,0
2018-11-14T03:15:33.653Z,0
2018-11-14T03:16:14.214Z,0
2018-11-14T03:16:54.791Z,0
2018-11-14T03:17:35.368Z,0
2018-11-14T03:18:15.949Z,0
2018-11-14T03:18:56.518Z,0
2018-11-14T03:19:37.071Z,0
2018-11-14T03:20:17.651Z,0
2018-11-14T03:20:58.216Z,0
2018-11-14T03:21:38.762Z,0
2018-11-14T03:22:19.319Z,0
2018-11-14T03:22:59.894Z,0
2018-11-14T03:23:40.449Z,0
2018-11-14T03:24:21.028Z,0
2018-11-14T03:25:01.559Z,0
2018-11-14T03:25:42.109Z,0
2018-11-14T03:26:22.674Z,0
2018-11-14T03:27:03.236Z,0
2018-11-14T03:27:43.808Z,0
2018-11-14T03:28:24.365Z,0
2018-11-14T03:29:04.910Z,0
2018-11-14T03:29:45.460Z,0
2018-11-14T03:30:26.015Z,0
2018-11-14T03:31:06.579Z,0
2018-11-14T03:31:47.188Z,0
2018-11-14T03:32:27.809Z,0
2018-11-14T03:33:08.378Z,0
2018-11-14T03:33:48.925Z,0
2018-11-14T03:34:29.547Z,0
2018-11-14T03:35:10.107Z,0
2018-11-14T03:35:50.656Z,0
2018-11-14T03:36:31.209Z,0
2018-11-14T03:37:11.779Z,0
2018-11-14T03:37:52.333Z,0
2018-11-14T03:38:32.879Z,0
2018-11-14T03:39:13.442Z,0
2018-11-14T03:39:54.021Z,0
2018-11-14T03:40:34.582Z,0
2018-11-14T03:41:15.159Z,0
2018-11-14T03:41:55.722Z,0
2018-11-14T03:42:36.271Z,0
2018-11-14T03:43:16.840Z,0
2018-11-14T03:43:57.410Z,0
2018-11-14T03:44:37.951Z,0
2018-11-14T03:45:18.491Z,0
2018-11-14T03:45:59.067Z,0
2018-11-14T03:46:39.613Z,0
2018-11-14T03:47:20.163Z,0
2018-11-14T03:48:00.747Z,0
2018-11-14T03:48:41.307Z,0
2018-11-14T03:49:21.879Z,0
2018-11-14T03:50:02.433Z,0
2018-11-14T03:50:42.997Z,0
2018-11-14T03:51:23.570Z,0
2018-11-14T03:52:04.114Z,0
2018-11-14T03:52:44.670Z,0
2018-11-14T03:53:25.212Z,0
2018-11-14T03:54:05.759Z,0
2018-11-14T03:54:46.308Z,0
2018-11-14T03:55:26.860Z,0
2018-11-14T03:56:07.419Z,0
2018-11-14T03:56:47.976Z,0
2018-11-14T03:57:28.534Z,0
2018-11-14T03:58:09.089Z,0
2018-11-14T03:58:49.666Z,0
2018-11-14T03:59:30.223Z,0
2018-11-14T04:00:10.779Z,0
2018-11-14T04:00:51.328Z,0
2018-11-14T04:01:31.887Z,0
2018-11-14T04:02:12.465Z,0
2018-11-14T04:02:53.019Z,0
2018-11-14T04:03:33.578Z,0
2018-11-14T04:04:14.134Z,0
2018-11-14T04:04:54.700Z,0
2018-11-14T04:05:35.290Z,0
2018-11-14T04:06:15.876Z,0
2018-11-14T04:06:56.421Z,0
2018-11-14T04:07:36.995Z,0
2018-11-14T04:08:17.553Z,0
2018-11-14T04:08:58.107Z,0
2018-11-14T04:09:38.687Z,0
2018-11-14T04:10:19.259Z,0
2018-11-14T04:10:59.820Z,0
2018-11-14T04:11:40.412Z,0
2018-11-14T04:12:20.957Z,0
2018-11-14T04:13:01.530Z,0
2018-11-14T04:13:42.076Z,0
2018-11-14T04:14:22.652Z,0
2018-11-14T04:15:03.223Z,0
2018-11-14T04:15:43.797Z,0
2018-11-14T04:16:24.362Z,0
2018-11-14T04:17:04.920Z,0
2018-11-14T04:17:45.477Z,0
2018-11-14T04:18:26.040Z,0
2018-11-14T04:19:06.599Z,0
2018-11-14T04:19:47.176Z,0
2018-11-14T04:20:27.737Z,0
2018-11-14T04:21:08.322Z,0
2018-11-14T04:21:48.909Z,0
2018-11-14T04:22:29.481Z,0
2018-11-14T04:23:10.036Z,0
2018-11-14T04:23:50.575Z,0
2018-11-14T04:24:31.198Z,0
2018-11-14T04:25:11.801Z,0
2018-11-14T04:25:52.358Z,0
2018-11-14T04:26:32.948Z,0
2018-11-14T04:27:13.508Z,0
2018-11-14T04:27:54.066Z,0
2018-11-14T04:28:34.618Z,0
2018-11-14T04:29:15.175Z,0
2018-11-14T04:29:55.739Z,0
2018-11-14T04:30:36.294Z,0
2018-11-14T04:31:16.850Z,0
2018-11-14T04:31:57.405Z,0
2018-11-14T04:32:38.013Z,0
2018-11-14T04:33:18.526Z,0
2018-11-14T04:33:59.089Z,0
2018-11-14T04:34:39.649Z,0
2018-11-14T04:35:20.207Z,0
2018-11-14T04:36:00.815Z,0
2018-11-14T04:36:41.412Z,0
2018-11-14T04:37:21.982Z,0
2018-11-14T04:38:02.538Z,0
2018-11-14T04:38:43.098Z,0
2018-11-14T04:39:23.659Z,0
2018-11-14T04:40:04.223Z,0
2018-11-14T04:40:44.783Z,0
2018-11-14T04:41:25.354Z,0
2018-11-14T04:42:05.923Z,0
2018-11-14T04:42:46.493Z,0
2018-11-14T04:43:27.080Z,0
2018-11-14T04:44:07.640Z,0
2018-11-14T04:44:48.200Z,0
2018-11-14T04:45:28.748Z,0
2018-11-14T04:46:09.301Z,0
2018-11-14T04:46:49.866Z,0
2018-11-14T04:47:30.431Z,0
2018-11-14T04:48:11.097Z,0
2018-11-14T04:48:51.555Z,0
2018-11-14T04:49:32.099Z,0
2018-11-14T04:50:12.654Z,0
2018-11-14T04:50:53.202Z,0
2018-11-14T04:51:33.782Z,0
2018-11-14T04:52:14.331Z,0
2018-11-14T04:52:54.892Z,0
2018-11-14T04:53:35.447Z,0
2018-11-14T04:54:16.036Z,0
2018-11-14T04:54:56.612Z,0
2018-11-14T04:55:37.185Z,0
2018-11-14T04:56:17.741Z,0
2018-11-14T04:56:58.301Z,0
2018-11-14T04:57:38.876Z,0
2018-11-14T04:58:19.438Z,0
2018-11-14T04:58:59.980Z,0
2018-11-14T04:59:40.576Z,0
2018-11-14T05:00:21.179Z,0
2018-11-14T05:01:01.744Z,0
2018-11-14T05:01:42.306Z,0
2018-11-14T05:02:22.875Z,0
2018-11-14T05:03:03.441Z,0
2018-11-14T05:03:43.995Z,0
2018-11-14T05:04:24.549Z,0
2018-11-14T05:05:05.103Z,0
2018-11-14T05:05:45.651Z,0
2018-11-14T05:06:26.202Z,0
2018-11-14T05:07:06.746Z,0
2018-11-14T05:07:47.308Z,0
2018-11-14T05:08:27.878Z,0
2018-11-14T05:09:08.440Z,0
2018-11-14T05:09:49.064Z,0
2018-11-14T05:10:29.633Z,0
2018-11-14T05:11:10.183Z,0
2018-11-14T05:11:50.784Z,0
2018-11-14T05:12:31.362Z,0
2018-11-14T05:13:11.933Z,0
2018-11-14T05:13:52.497Z,0
2018-11-14T05:14:33.038Z,0
2018-11-14T05:15:13.613Z,0
2018-11-14T05:15:54.194Z,0
2018-11-14T05:16:34.778Z,0
2018-11-14T05:17:15.329Z,0
2018-11-14T05:17:55.887Z,0
2018-11-14T05:18:36.444Z,0
2018-11-14T05:19:16.993Z,0
2018-11-14T05:19:57.547Z,0
2018-11-14T05:20:38.105Z,0
2018-11-14T05:21:18.674Z,0
2018-11-14T05:21:59.256Z,0
2018-11-14T05:22:39.825Z,0
2018-11-14T05:23:20.374Z,0
2018-11-14T05:24:00.926Z,0
2018-11-14T05:24:41.488Z,0
2018-11-14T05:25:22.054Z,0
2018-11-14T05:26:02.635Z,0
2018-11-14T05:26:43.202Z,0
2018-11-14T05:27:23.776Z,0
2018-11-14T05:28:04.350Z,0
2018-11-14T05:28:44.949Z,0
2018-11-14T05:29:25.501Z,0
2018-11-14T05:30:06.080Z,0
2018-11-14T05:30:46.649Z,0
2018-11-14T05:31:27.231Z,0
2018-11-14T05:32:07.783Z,0
2018-11-14T05:32:48.353Z,0
2018-11-14T05:33:28.912Z,0
2018-11-14T05:34:09.486Z,0
2018-11-14T05:34:50.035Z,0
2018-11-14T05:35:30.590Z,0
2018-11-14T05:36:11.162Z,0
2018-11-14T05:36:51.731Z,0
2018-11-14T05:37:32.281Z,0
2018-11-14T05:38:12.850Z,0
2018-11-14T05:38:53.408Z,0
2018-11-14T05:39:34.005Z,0
2018-11-14T05:40:14.564Z,0
2018-11-14T05:40:55.116Z,0
2018-11-14T05:41:35.674Z,0
2018-11-14T05:42:16.232Z,0
2018-11-14T05:42:56.783Z,0
2018-11-14T05:43:37.403Z,0
2018-11-14T05:44:17.998Z,0
2018-11-14T05:44:58.626Z,0
2018-11-14T05:45:39.365Z,0
2018-11-14T05:46:19.749Z,0
2018-11-14T05:47:00.298Z,0
2018-11-14T05:47:40.923Z,0
2018-11-14T05:48:21.463Z,0
2018-11-14T05:49:02.046Z,0
2018-11-14T05:49:42.643Z,0
2018-11-14T05:50:23.203Z,0
2018-11-14T05:51:03.765Z,0
2018-11-14T05:51:44.319Z,0
2018-11-14T05:52:24.875Z,0
2018-11-14T05:53:05.434Z,0
2018-11-14T05:53:45.978Z,0
2018-11-14T05:54:26.579Z,0
2018-11-14T05:55:07.311Z,0
2018-11-14T05:55:47.719Z,0
2018-11-14T05:56:28.306Z,0
2018-11-14T05:57:08.887Z,0
2018-11-14T05:57:49.447Z,0
2018-11-14T05:58:30.009Z,0
2018-11-14T05:59:10.565Z,0
2018-11-14T05:59:51.137Z,0
2018-11-14T06:00:31.731Z,0
2018-11-14T06:01:12.289Z,0
2018-11-14T06:01:52.882Z,0
2018-11-14T06:02:33.455Z,0
2018-11-14T06:03:14.010Z,0
2018-11-14T06:03:54.578Z,0
2018-11-14T06:04:35.182Z,0
2018-11-14T06:05:15.734Z,0
2018-11-14T06:05:56.353Z,0
2018-11-14T06:06:36.957Z,0
2018-11-14T06:07:17.639Z,0
2018-11-14T06:07:58.121Z,0
2018-11-14T06:08:38.690Z,0
2018-11-14T06:09:19.266Z,0
2018-11-14T06:09:59.812Z,0
2018-11-14T06:10:40.371Z,0
2018-11-14T06:11:20.939Z,0
2018-11-14T06:12:01.490Z,0
2018-11-14T06:12:42.058Z,0
2018-11-14T06:13:22.666Z,0
2018-11-14T06:14:03.216Z,0
2018-11-14T06:14:43.773Z,0
2018-11-14T06:15:24.408Z,0
2018-11-14T06:16:04.918Z,0
2018-11-14T06:16:45.476Z,0
2018-11-14T06:17:26.094Z,0
2018-11-14T06:18:06.671Z,0
2018-11-14T06:18:47.231Z,0
2018-11-14T06:19:27.792Z,0
2018-11-14T06:20:08.361Z,0
2018-11-14T06:20:48.913Z,0
2018-11-14T06:21:29.476Z,0
2018-11-14T06:22:10.044Z,0
2018-11-14T06:22:50.588Z,5
2018-11-14T06:23:31.228Z,5
2018-11-14T06:24:11.726Z,5
2018-11-14T06:24:52.292Z,5
2018-11-14T06:25:32.865Z,5
2018-11-14T06:26:13.421Z,5
2018-11-14T06:26:53.971Z,5
2018-11-14T06:27:34.874Z,5
2018-11-14T06:28:15.436Z,5
2018-11-14T06:28:56.003Z,5
2018-11-14T06:29:36.632Z,5
2018-11-14T06:30:17.539Z,5
2018-11-14T06:30:58.090Z,5
2018-11-14T06:31:38.668Z,5
2018-11-14T06:32:19.669Z,5
2018-11-14T06:33:00.696Z,5
2018-11-14T06:33:42.422Z,10
2018-11-14T06:34:22.966Z,10
2018-11-14T06:35:03.537Z,10
2018-11-14T06:35:44.104Z,10
2018-11-14T06:36:24.660Z,10
2018-11-14T06:37:05.703Z,10
2018-11-14T06:37:48.350Z,10
2018-11-14T06:38:28.894Z,10
2018-11-14T06:39:09.477Z,10
2018-11-14T06:39:50.038Z,10
2018-11-14T06:40:30.638Z,10
2018-11-14T06:41:11.194Z,10
2018-11-14T06:41:51.782Z,15
2018-11-14T06:42:32.509Z,15
2018-11-14T06:43:13.072Z,15
2018-11-14T06:43:53.632Z,15
2018-11-14T06:44:34.186Z,15
2018-11-14T06:45:14.732Z,15
2018-11-14T06:45:55.355Z,15
2018-11-14T06:46:35.899Z,15
2018-11-14T06:47:16.684Z,15
2018-11-14T06:47:57.294Z,20
2018-11-14T06:48:37.918Z,20
2018-11-14T06:49:18.485Z,20
2018-11-14T06:49:59.106Z,20
2018-11-14T06:50:39.661Z,20
2018-11-14T06:51:20.263Z,20
2018-11-14T06:52:01.283Z,25
2018-11-14T06:52:42.329Z,25
2018-11-14T06:53:23.389Z,25
2018-11-14T06:54:04.377Z,25
2018-11-14T06:54:45.289Z,30
2018-11-14T06:55:26.338Z,30
2018-11-14T06:56:07.268Z,30
2018-11-14T06:56:48.097Z,30
2018-11-14T06:57:28.789Z,30
2018-11-14T06:58:09.584Z,30
2018-11-14T06:58:50.463Z,30
2018-11-14T06:59:31.341Z,30
2018-11-14T07:00:12.051Z,35
2018-11-14T07:00:52.777Z,35
2018-11-14T07:01:33.449Z,35
2018-11-14T07:02:14.209Z,35
2018-11-14T07:02:54.984Z,35
2018-11-14T07:03:35.717Z,35
2018-11-14T07:04:16.465Z,35
2018-11-14T07:04:57.206Z,35
2018-11-14T07:05:37.943Z,35
2018-11-14T07:06:18.710Z,35
2018-11-14T07:06:59.468Z,35
2018-11-14T07:07:40.275Z,35
2018-11-14T07:08:20.846Z,35
2018-11-14T07:09:01.518Z,40
2018-11-14T07:09:42.106Z,40
2018-11-14T07:10:22.675Z,40
2018-11-14T07:11:03.313Z,40
2018-11-14T07:11:43.802Z,45
2018-11-14T07:12:24.363Z,45
2018-11-14T07:13:04.928Z,45
2018-11-14T07:13:45.461Z,45
2018-11-14T07:14:26.397Z,45
2018-11-14T07:15:06.973Z,50
2018-11-14T07:15:47.536Z,50
2018-11-14T07:16:28.102Z,50
2018-11-14T07:17:08.675Z,50
2018-11-14T07:17:49.729Z,50
2018-11-14T07:18:30.673Z,50
2018-11-14T07:19:11.370Z,50
2018-11-14T07:19:51.926Z,50
2018-11-14T07:20:32.479Z,55
2018-11-14T07:21:13.039Z,55
2018-11-14T07:21:53.664Z,55
2018-11-14T07:22:34.281Z,60
2018-11-14T07:23:14.842Z,60
2018-11-14T07:23:55.402Z,60
2018-11-14T07:24:36.053Z,60
2018-11-14T07:25:16.518Z,60
2018-11-14T07:25:57.110Z,60
2018-11-14T07:26:37.648Z,60
2018-11-14T07:27:18.247Z,60
2018-11-14T07:27:58.806Z,60
2018-11-14T07:28:39.378Z,60
2018-11-14T07:29:19.930Z,65
2018-11-14T07:30:00.981Z,65
2018-11-14T07:30:41.422Z,65
2018-11-14T07:31:22.016Z,65
2018-11-14T07:32:02.612Z,65
2018-11-14T07:32:43.178Z,65
2018-11-14T07:33:23.751Z,65
2018-11-14T07:34:04.326Z,65
2018-11-14T07:34:45.039Z,65
2018-11-14T07:35:25.599Z,65
2018-11-14T07:36:06.161Z,65
2018-11-14T07:38:44.572Z,65
2018-11-14T07:39:25.127Z,65
2018-11-14T07:40:05.716Z,70
2018-11-14T07:40:46.296Z,70
2018-11-14T07:41:26.849Z,70
2018-11-14T07:42:07.409Z,75
2018-11-14T07:42:47.953Z,75
2018-11-14T07:43:28.520Z,75
2018-11-14T07:44:09.074Z,75
2018-11-14T07:44:49.637Z,80
2018-11-14T07:45:30.361Z,80
2018-11-14T07:46:10.978Z,80
2018-11-14T07:46:51.665Z,80
2018-11-14T07:47:32.657Z,80
2018-11-14T07:48:13.250Z,80
2018-11-14T07:48:53.854Z,85
2018-11-14T07:49:34.427Z,85
2018-11-14T07:50:15.077Z,85
2018-11-14T07:50:55.541Z,85
2018-11-14T07:51:36.093Z,90
2018-11-14T07:52:16.664Z,90
2018-11-14T07:52:57.218Z,90
2018-11-14T07:53:37.783Z,85
2018-11-14T07:54:18.352Z,85
2018-11-14T07:54:58.967Z,85
2018-11-14T07:55:39.647Z,85
2018-11-14T07:56:20.208Z,80
2018-11-14T07:57:00.786Z,85
2018-11-14T07:57:41.360Z,80
2018-11-14T07:58:22.081Z,85
2018-11-14T07:59:02.645Z,85
2018-11-14T07:59:43.195Z,85
2018-11-14T08:00:23.912Z,90
2018-11-14T08:01:04.477Z,90
2018-11-14T08:01:45.085Z,90
2018-11-14T08:02:25.667Z,85
2018-11-14T08:03:06.204Z,90
2018-11-14T08:03:46.755Z,85
2018-11-14T08:04:27.343Z,90
2018-11-14T08:05:07.897Z,90
2018-11-14T08:05:48.442Z,80
2018-11-14T08:06:29.044Z,75
2018-11-14T08:07:09.615Z,70
2018-11-14T08:07:50.302Z,80
2018-11-14T08:08:30.866Z,90
2018-11-14T08:09:11.287Z,85
2018-11-14T08:09:51.933Z,90
2018-11-14T08:10:32.795Z,95
2018-11-14T08:11:13.579Z,105
2018-11-14T08:11:54.102Z,105
2018-11-14T08:12:34.663Z,105
2018-11-14T08:13:15.238Z,110
2018-11-14T08:13:55.855Z,120
2018-11-14T08:14:36.591Z,185
2018-11-14T08:15:17.155Z,355
2018-11-14T08:15:57.710Z,530
2018-11-14T08:16:38.255Z,505
2018-11-14T08:17:18.895Z,510
2018-11-14T08:17:59.436Z,495
2018-11-14T08:18:40.059Z,485
2018-11-14T08:19:20.547Z,480
2018-11-14T08:20:01.111Z,525
2018-11-14T08:20:41.693Z,455
2018-11-14T08:21:22.305Z,390
2018-11-14T08:22:02.864Z,385
2018-11-14T08:22:43.456Z,440
2018-11-14T08:23:24.140Z,485
2018-11-14T08:24:04.718Z,440
2018-11-14T08:24:45.541Z,375
2018-11-14T08:25:26.118Z,310
2018-11-14T08:26:06.700Z,255
2018-11-14T08:26:47.287Z,270
2018-11-14T08:27:27.837Z,350
2018-11-14T08:28:08.414Z,400
2018-11-14T08:28:48.975Z,450
2018-11-14T08:29:29.520Z,575
2018-11-14T08:30:10.106Z,495
2018-11-14T08:30:50.715Z,400
2018-11-14T08:31:31.407Z,375
2018-11-14T08:32:23.090Z,460
2018-11-14T08:33:02.816Z,455
2018-11-14T08:33:43.438Z,420
2018-11-14T08:34:24.565Z,415
2018-11-14T08:35:05.132Z,335
2018-11-14T08:35:46.540Z,215
2018-11-14T08:36:27.299Z,180
2018-11-14T08:37:09.494Z,155
2018-11-14T08:37:50.738Z,175
2018-11-14T08:38:31.296Z,180
2018-11-14T08:39:12.718Z,230
2018-11-14T08:39:53.401Z,190
2018-11-14T08:40:33.988Z,325
2018-11-14T08:41:14.843Z,510
2018-11-14T08:41:55.767Z,600
2018-11-14T08:42:36.335Z,630
2018-11-14T08:43:17.580Z,695
2018-11-14T08:43:59.035Z,695
2018-11-14T08:44:39.613Z,680
2018-11-14T08:45:20.562Z,660
2018-11-14T08:46:01.625Z,570
2018-11-14T08:46:42.746Z,525
2018-11-14T08:47:23.311Z,550
2018-11-14T08:48:04.464Z,560
2018-11-14T08:48:45.503Z,595
2018-11-14T08:49:26.057Z,675
2018-11-14T08:50:06.657Z,610
2018-11-14T08:50:47.204Z,605
2018-11-14T08:51:27.763Z,250
2018-11-14T08:52:08.356Z,125
2018-11-14T08:52:49.019Z,120
2018-11-14T08:53:29.859Z,370
2018-11-14T08:54:11.185Z,595
2018-11-14T08:54:51.807Z,610
2018-11-14T08:55:32.386Z,545
2018-11-14T08:56:12.960Z,410
2018-11-14T08:56:53.529Z,340
2018-11-14T08:57:34.111Z,425
2018-11-14T08:58:15.260Z,395
2018-11-14T08:58:56.409Z,605
2018-11-14T08:59:36.977Z,670
2018-11-14T09:00:18.403Z,630
2018-11-14T09:00:58.984Z,625
2018-11-14T09:01:39.601Z,565
2018-11-14T09:02:20.133Z,500
2018-11-14T09:03:00.716Z,460
2018-11-14T09:03:41.293Z,305
2018-11-14T09:04:21.857Z,260
2018-11-14T09:05:02.428Z,130
2018-11-14T09:05:42.986Z,360
2018-11-14T09:06:23.631Z,480
2018-11-14T09:07:04.158Z,450
2018-11-14T09:07:44.878Z,485
2018-11-14T09:08:25.305Z,605
2018-11-14T09:09:05.870Z,665
2018-11-14T09:09:46.445Z,575
2018-11-14T09:10:27.030Z,580
2018-11-14T09:11:07.755Z,495
2018-11-14T09:11:48.196Z,545
2018-11-14T09:12:28.863Z,455
2018-11-14T09:13:09.413Z,460
2018-11-14T09:13:49.940Z,480
2018-11-14T09:14:30.582Z,190
2018-11-14T09:15:11.192Z,500
2018-11-14T09:15:51.661Z,455
2018-11-14T09:16:32.254Z,395
2018-11-14T09:17:12.858Z,230
2018-11-14T09:17:53.439Z,175
2018-11-14T09:18:34.031Z,185
2018-11-14T09:19:14.577Z,205
2018-11-14T09:19:55.141Z,215
2018-11-14T09:20:35.748Z,165
2018-11-14T09:21:16.353Z,145
2018-11-14T09:21:56.909Z,145
2018-11-14T09:22:37.501Z,125
2018-11-14T09:23:19.026Z,120
2018-11-14T09:23:59.606Z,165
2018-11-14T09:24:40.249Z,170
2018-11-14T09:25:21.141Z,165
2018-11-14T09:26:01.844Z,145
2018-11-14T09:26:42.397Z,155
2018-11-14T09:27:23.078Z,170
2018-11-14T09:28:03.630Z,150
2018-11-14T09:28:44.511Z,180
2018-11-14T09:29:25.095Z,140
2018-11-14T09:30:05.687Z,125
2018-11-14T09:30:46.246Z,125
2018-11-14T09:31:26.824Z,150
2018-11-14T09:32:08.308Z,125
2018-11-14T09:32:49.146Z,140
2018-11-14T09:33:29.729Z,110
2018-11-14T09:34:10.285Z,135
2018-11-14T09:34:50.849Z,140
2018-11-14T09:35:31.409Z,140
2018-11-14T09:36:11.950Z,135
2018-11-14T09:36:52.528Z,135
2018-11-14T09:37:33.081Z,115
2018-11-14T09:38:14.149Z,100
2018-11-14T09:38:55.027Z,95
2018-11-14T09:39:35.707Z,130
2018-11-14T09:40:16.690Z,130
2018-11-14T09:40:57.404Z,130
2018-11-14T09:41:38.059Z,115
2018-11-14T09:42:18.663Z,130
2018-11-14T09:42:59.232Z,130
2018-11-14T09:43:39.908Z,125
2018-11-14T09:44:20.464Z,100
2018-11-14T09:45:01.058Z,115
2018-11-14T09:45:41.758Z,120
2018-11-14T09:46:22.403Z,120
2018-11-14T09:47:02.957Z,110
2018-11-14T09:47:43.599Z,110
2018-11-14T09:48:24.258Z,105
2018-11-14T09:49:04.832Z,95
2018-11-14T09:49:45.320Z,105
2018-11-14T09:50:25.883Z,120
2018-11-14T09:51:06.449Z,130
2018-11-14T09:51:47.021Z,105